Time;durP1;ratioP1;P1;durP2;ratioP2;P2;SDS_P1;SDS_P2;PMS_P1;PMS_P2;Temp;Humidity;BMP_temperature;BMP_pressure;BME280_temperature;BME280_humidity;BME280_pressure;Samples;Min_cycle;Max_cycle;Signal;HPM_P1;HPM_P2
2024/01/26 00:01:49;;;;;;;3.27;2.60;;;6.80;54.50;;;;;;4935323;29;20185;-83
2024/01/26 00:04:15;;;;;;;3.80;2.47;;;6.70;54.10;;;;;;4935719;29;20189;-82
2024/01/26 00:06:41;;;;;;;4.03;2.50;;;6.60;54.20;;;;;;4936470;29;20184;-81
2024/01/26 00:09:09;;;;;;;3.50;2.63;;;6.60;54.10;;;;;;4950482;28;20193;-82
2024/01/26 00:11:35;;;;;;;2.87;2.27;;;6.60;54.10;;;;;;4928051;29;20182;-82
2024/01/26 00:14:00;;;;;;;4.57;3.03;;;6.60;54.20;;;;;;4933044;29;20191;-81
2024/01/26 00:16:26;;;;;;;2.97;2.10;;;6.70;54.30;;;;;;4935132;29;20217;-82
2024/01/26 00:18:52;;;;;;;2.83;2.30;;;6.60;54.00;;;;;;4953325;28;20284;-82
2024/01/26 00:21:18;;;;;;;3.23;2.40;;;6.60;54.10;;;;;;4935706;29;20223;-82
2024/01/26 00:23:44;;;;;;;2.40;2.20;;;6.50;54.00;;;;;;4949849;28;20246;-81
2024/01/26 00:26:12;;;;;;;2.40;2.10;;;6.60;54.60;;;;;;4950436;29;20196;-81
2024/01/26 00:28:38;;;;;;;2.50;2.20;;;6.60;54.60;;;;;;4932136;28;20253;-81
2024/01/26 00:31:04;;;;;;;2.90;2.40;;;6.60;54.30;;;;;;4953038;28;20593;-82
2024/01/26 00:33:29;;;;;;;2.70;2.03;;;6.50;54.30;;;;;;4935085;29;20177;-81
2024/01/26 00:35:55;;;;;;;2.77;2.43;;;6.60;54.50;;;;;;4949269;28;20189;-81
2024/01/26 00:38:21;;;;;;;2.40;2.03;;;6.60;54.40;;;;;;4950147;28;20213;-82
2024/01/26 00:40:47;;;;;;;4.43;2.17;;;6.70;54.60;;;;;;4934129;28;20185;-82
2024/01/26 00:43:13;;;;;;;3.03;2.10;;;6.60;54.30;;;;;;4951951;28;20662;-82
2024/01/26 00:45:39;;;;;;;3.07;2.40;;;6.50;54.30;;;;;;4933197;29;20173;-82
2024/01/26 00:48:05;;;;;;;3.40;2.53;;;6.70;54.40;;;;;;4935489;29;20608;-81
2024/01/26 00:50:31;;;;;;;3.30;2.13;;;6.50;54.20;;;;;;4949830;28;20185;-82
2024/01/26 00:52:57;;;;;;;3.30;2.50;;;6.50;54.30;;;;;;4935031;29;20185;-81
2024/01/26 00:55:23;;;;;;;3.33;2.00;;;6.60;54.20;;;;;;4934317;29;20205;-81
2024/01/26 00:57:48;;;;;;;2.63;2.30;;;6.50;53.70;;;;;;4934951;29;20204;-81
2024/01/26 01:00:15;;;;;;;2.23;2.03;;;6.50;53.90;;;;;;4935136;29;20283;-82
2024/01/26 01:02:40;;;;;;;2.30;2.10;;;6.40;53.90;;;;;;4934628;29;20208;-82
2024/01/26 01:05:06;;;;;;;2.63;2.20;;;6.50;54.20;;;;;;4948922;28;20640;-82
2024/01/26 01:07:32;;;;;;;4.43;2.27;;;6.50;54.30;;;;;;4949553;28;20527;-81
2024/01/26 01:09:58;;;;;;;5.17;2.70;;;6.50;54.10;;;;;;4948473;29;20169;-82
2024/01/26 01:12:23;;;;;;;5.80;2.97;;;6.50;54.20;;;;;;4931857;29;20228;-82
2024/01/26 01:14:49;;;;;;;4.13;2.60;;;6.50;54.20;;;;;;4948519;28;20283;-83
2024/01/26 01:17:15;;;;;;;5.53;2.97;;;6.50;54.30;;;;;;4949462;29;20208;-82
2024/01/26 01:19:41;;;;;;;4.30;2.80;;;6.50;54.70;;;;;;4934219;29;20323;-82
2024/01/26 01:22:07;;;;;;;3.17;2.63;;;6.60;54.40;;;;;;4935467;28;20188;-81
2024/01/26 01:24:32;;;;;;;3.27;2.60;;;6.60;54.40;;;;;;4935662;29;20703;-81
2024/01/26 01:26:58;;;;;;;3.13;2.40;;;6.60;54.20;;;;;;4933640;29;20204;-81
2024/01/26 01:29:23;;;;;;;3.23;2.40;;;6.70;54.50;;;;;;4934965;29;20252;-82
2024/01/26 01:31:49;;;;;;;4.30;2.20;;;6.70;54.20;;;;;;4948441;28;20190;-82
2024/01/26 01:34:15;;;;;;;2.63;2.17;;;6.60;54.00;;;;;;4934086;29;20180;-81
2024/01/26 01:36:40;;;;;;;2.30;2.10;;;6.70;54.10;;;;;;4934774;28;20181;-81
2024/01/26 01:39:07;;;;;;;3.30;1.93;;;6.60;54.00;;;;;;4934616;29;20223;-80
2024/01/26 01:41:33;;;;;;;2.53;2.10;;;6.60;53.90;;;;;;4934475;29;20204;-82
2024/01/26 01:43:59;;;;;;;2.60;2.30;;;6.60;54.10;;;;;;4933955;29;20556;-82
2024/01/26 01:46:25;;;;;;;3.53;2.60;;;6.60;54.20;;;;;;4933200;29;20198;-80
2024/01/26 01:48:51;;;;;;;2.70;2.50;;;6.60;54.10;;;;;;4934841;29;20191;-81
2024/01/26 01:51:17;;;;;;;3.57;2.20;;;6.70;54.30;;;;;;4950039;29;20192;-81
2024/01/26 01:53:43;;;;;;;2.17;1.90;;;6.70;54.00;;;;;;4949869;28;20719;-81
2024/01/26 01:56:14;;;;;;;2.77;2.20;;;6.60;53.90;;;;;;4934433;29;20189;-81
2024/01/26 01:58:41;;;;;;;3.10;1.97;;;6.60;53.80;;;;;;4933280;28;20221;-82
2024/01/26 02:01:07;;;;;;;2.20;2.00;;;6.60;54.20;;;;;;4934958;29;20186;-82
2024/01/26 02:03:33;;;;;;;2.47;1.97;;;6.50;53.70;;;;;;4932863;29;20237;-82
2024/01/26 02:05:59;;;;;;;2.90;2.43;;;6.50;53.90;;;;;;4949098;29;20193;-81
2024/01/26 02:08:25;;;;;;;3.37;2.57;;;6.50;54.10;;;;;;4951039;28;20197;-81
2024/01/26 02:10:50;;;;;;;3.73;2.50;;;6.70;54.20;;;;;;4933553;29;20197;-82
2024/01/26 02:13:16;;;;;;;3.57;2.43;;;6.60;54.10;;;;;;4933953;29;20232;-82
2024/01/26 02:15:41;;;;;;;3.40;2.63;;;6.50;53.90;;;;;;4934902;29;20667;-81
2024/01/26 02:18:07;;;;;;;3.73;2.43;;;6.60;54.10;;;;;;4934202;28;20307;-83
2024/01/26 02:20:33;;;;;;;3.57;2.83;;;6.50;54.10;;;;;;4934724;29;20664;-82
2024/01/26 02:22:58;;;;;;;4.37;2.50;;;6.50;54.10;;;;;;4933613;29;20185;-83
2024/01/26 02:25:24;;;;;;;3.87;2.60;;;6.60;54.40;;;;;;4932764;29;20181;-82
2024/01/26 02:27:53;;;;;;;3.73;2.60;;;6.50;54.40;;;;;;4934565;29;20283;-82
2024/01/26 02:30:19;;;;;;;2.30;2.10;;;6.50;54.40;;;;;;4948605;28;20258;-82
2024/01/26 02:32:44;;;;;;;2.07;1.87;;;6.50;54.60;;;;;;4933552;29;20216;-82
2024/01/26 02:35:10;;;;;;;2.60;2.30;;;6.50;54.40;;;;;;4934195;29;20177;-81
2024/01/26 02:37:36;;;;;;;3.80;2.53;;;6.50;54.20;;;;;;4931627;29;20212;-83
2024/01/26 02:40:02;;;;;;;3.83;2.50;;;6.60;54.40;;;;;;4951277;28;20181;-81
2024/01/26 02:42:27;;;;;;;2.60;2.40;;;6.50;54.30;;;;;;4948509;28;20193;-82
2024/01/26 02:44:53;;;;;;;2.40;2.20;;;6.50;54.30;;;;;;4947783;28;20221;-80
2024/01/26 02:47:19;;;;;;;3.70;2.70;;;6.60;54.20;;;;;;4950739;28;20224;-82
2024/01/26 02:49:44;;;;;;;3.93;2.67;;;6.50;54.10;;;;;;4933503;29;20189;-81
2024/01/26 02:52:10;;;;;;;2.70;2.50;;;6.50;54.20;;;;;;4934537;29;20173;-81
2024/01/26 02:54:36;;;;;;;3.57;2.70;;;6.50;54.20;;;;;;4932803;28;20188;-82
2024/01/26 02:57:01;;;;;;;2.83;2.30;;;6.60;54.40;;;;;;4933307;29;20565;-82
2024/01/26 02:59:27;;;;;;;2.70;2.33;;;6.40;54.10;;;;;;4933173;29;20199;-81
2024/01/26 03:01:52;;;;;;;2.90;2.60;;;6.60;54.40;;;;;;4933321;28;20196;-82
2024/01/26 03:04:19;;;;;;;3.07;2.57;;;6.50;54.20;;;;;;4935976;29;20189;-83
2024/01/26 03:06:45;;;;;;;2.20;2.00;;;6.30;54.00;;;;;;4937394;28;20588;-81
2024/01/26 03:09:11;;;;;;;2.93;2.37;;;6.40;54.20;;;;;;4952968;29;20189;-81
2024/01/26 03:11:38;;;;;;;2.47;2.27;;;6.30;54.10;;;;;;4937403;28;20609;-81
2024/01/26 03:14:05;;;;;;;3.23;2.60;;;6.30;54.10;;;;;;4936328;29;20193;-81
2024/01/26 03:16:35;;;;;;;2.43;2.23;;;6.30;54.20;;;;;;4935051;29;20559;-82
2024/01/26 03:19:01;;;;;;;3.97;2.40;;;6.30;54.10;;;;;;4954293;28;20265;-81
2024/01/26 03:21:27;;;;;;;2.43;2.23;;;6.30;54.20;;;;;;4936908;29;20201;-82
2024/01/26 03:23:52;;;;;;;2.40;2.20;;;6.30;54.10;;;;;;4936316;29;20217;-82
2024/01/26 03:26:18;;;;;;;2.73;2.40;;;6.50;54.40;;;;;;4937235;29;20224;-82
2024/01/26 03:28:45;;;;;;;2.10;1.87;;;6.40;54.30;;;;;;4950462;29;20193;-82
2024/01/26 03:31:11;;;;;;;2.17;1.90;;;6.30;54.00;;;;;;4937303;29;20183;-81
2024/01/26 03:33:37;;;;;;;2.23;2.00;;;6.30;54.10;;;;;;4937579;28;20264;-81
2024/01/26 03:36:02;;;;;;;2.70;2.20;;;6.30;54.30;;;;;;4936148;29;20655;-81
2024/01/26 03:38:28;;;;;;;2.10;1.93;;;6.40;54.30;;;;;;4936886;29;20213;-81
2024/01/26 03:40:53;;;;;;;2.10;2.00;;;6.30;53.80;;;;;;4950238;28;20205;-81
2024/01/26 03:43:19;;;;;;;2.13;1.87;;;6.30;53.90;;;;;;4936400;29;20675;-81
2024/01/26 03:45:45;;;;;;;2.43;2.23;;;6.40;53.90;;;;;;4936951;29;20304;-81
2024/01/26 03:48:10;;;;;;;2.00;1.90;;;6.20;53.90;;;;;;4951188;28;20659;-81
2024/01/26 03:50:36;;;;;;;3.30;1.70;;;6.30;54.30;;;;;;4936549;28;20240;-81
2024/01/26 03:53:01;;;;;;;2.73;2.10;;;6.30;54.10;;;;;;4936107;29;20195;-81
2024/01/26 03:55:27;;;;;;;2.20;2.00;;;6.20;54.10;;;;;;4935478;29;20201;-82
2024/01/26 03:57:53;;;;;;;2.07;1.87;;;6.30;54.40;;;;;;4936634;29;20725;-82
2024/01/26 04:00:19;;;;;;;2.90;2.07;;;6.30;54.40;;;;;;4936332;29;20288;-80
2024/01/26 04:02:45;;;;;;;2.00;1.90;;;6.20;54.20;;;;;;4949833;29;20643;-82
2024/01/26 04:05:10;;;;;;;2.67;2.10;;;6.40;54.40;;;;;;4950739;29;20185;-82
2024/01/26 04:07:36;;;;;;;2.20;2.00;;;6.20;54.00;;;;;;4935703;28;20653;-82
2024/01/26 04:10:02;;;;;;;2.17;1.97;;;6.40;54.40;;;;;;4953877;28;20181;-82
2024/01/26 04:12:27;;;;;;;2.03;1.90;;;6.20;54.10;;;;;;4936591;29;20275;-82
2024/01/26 04:14:53;;;;;;;2.63;2.43;;;6.30;54.30;;;;;;4935383;29;20193;-81
2024/01/26 04:17:18;;;;;;;2.03;1.93;;;6.30;54.10;;;;;;4936389;28;20220;-82
2024/01/26 04:19:44;;;;;;;2.57;2.30;;;6.30;54.30;;;;;;4949833;28;20230;-82
2024/01/26 04:22:10;;;;;;;2.13;1.97;;;6.40;54.50;;;;;;4954483;28;20185;-81
2024/01/26 04:24:36;;;;;;;2.20;2.00;;;6.40;54.40;;;;;;4936850;29;20260;-82
2024/01/26 04:27:01;;;;;;;2.50;2.10;;;6.40;54.30;;;;;;4950203;28;20291;-81
2024/01/26 04:29:27;;;;;;;2.67;2.47;;;6.40;54.00;;;;;;4936084;29;20718;-80
2024/01/26 04:31:53;;;;;;;2.27;1.90;;;6.40;53.90;;;;;;4935500;28;20193;-82
2024/01/26 04:34:19;;;;;;;2.20;2.00;;;6.40;54.10;;;;;;4935199;28;20177;-82
2024/01/26 04:36:49;;;;;;;4.33;2.50;;;6.40;54.00;;;;;;4935710;29;20177;-80
2024/01/26 04:39:16;;;;;;;2.50;2.30;;;6.40;54.60;;;;;;4935450;29;20360;-82
2024/01/26 04:41:41;;;;;;;4.43;2.60;;;6.40;53.70;;;;;;4949879;28;20715;-80
2024/01/26 04:44:08;;;;;;;2.77;2.57;;;6.40;53.90;;;;;;4934816;29;20185;-82
2024/01/26 04:46:34;;;;;;;2.70;2.50;;;6.40;54.00;;;;;;4933548;29;20190;-81
2024/01/26 04:48:59;;;;;;;3.70;2.70;;;6.40;53.80;;;;;;4935378;29;20182;-82
2024/01/26 04:51:25;;;;;;;2.70;2.50;;;6.50;54.10;;;;;;4949900;28;20200;-81
2024/01/26 04:53:51;;;;;;;4.20;2.77;;;6.50;54.00;;;;;;4934513;29;20224;-82
2024/01/26 04:56:16;;;;;;;2.57;2.37;;;6.50;54.10;;;;;;4935618;28;20189;-80
2024/01/26 04:58:42;;;;;;;2.50;2.30;;;6.50;54.00;;;;;;4934312;29;20248;-81
2024/01/26 05:01:09;;;;;;;3.57;2.40;;;6.50;54.20;;;;;;4935796;29;20193;-81
2024/01/26 05:03:35;;;;;;;3.83;2.67;;;6.50;54.30;;;;;;4934941;28;20276;-82
2024/01/26 05:06:00;;;;;;;3.53;2.63;;;6.50;54.30;;;;;;4934516;28;20272;-81
2024/01/26 05:08:26;;;;;;;3.73;2.90;;;6.60;54.20;;;;;;4936063;29;20640;-82
2024/01/26 05:10:52;;;;;;;4.03;3.03;;;6.70;54.40;;;;;;4934435;28;20280;-81
2024/01/26 05:13:17;;;;;;;4.60;3.07;;;6.60;54.40;;;;;;4934729;29;20298;-82
2024/01/26 05:15:43;;;;;;;3.53;3.13;;;6.70;54.40;;;;;;4936087;29;20185;-82
2024/01/26 05:18:08;;;;;;;3.90;3.10;;;6.60;54.00;;;;;;4933727;29;20223;-82
2024/01/26 05:20:34;;;;;;;4.17;2.90;;;6.70;54.20;;;;;;4935168;29;20726;-82
2024/01/26 05:23:00;;;;;;;3.63;3.20;;;6.70;54.40;;;;;;4934154;29;20272;-81
2024/01/26 05:25:25;;;;;;;3.43;3.03;;;6.70;54.40;;;;;;4934203;29;20549;-82
2024/01/26 05:27:51;;;;;;;3.80;3.17;;;6.60;54.00;;;;;;4932876;28;20188;-81
2024/01/26 05:30:17;;;;;;;3.07;2.77;;;6.80;54.20;;;;;;4934907;28;20217;-81
2024/01/26 05:32:43;;;;;;;3.83;3.23;;;6.70;54.20;;;;;;4934542;29;20219;-82
2024/01/26 05:35:09;;;;;;;4.27;3.23;;;6.70;54.20;;;;;;4934252;29;20593;-81
2024/01/26 05:37:35;;;;;;;3.70;3.40;;;6.70;54.20;;;;;;4933398;29;20221;-82
2024/01/26 05:40:08;;;;;;;3.73;3.30;;;6.70;54.10;;;;;;4930415;29;20247;-82
2024/01/26 05:42:34;;;;;;;4.27;3.23;;;6.70;54.10;;;;;;4934756;29;20248;-81
2024/01/26 05:45:02;;;;;;;3.67;2.93;;;6.70;53.90;;;;;;4948238;28;20193;-81
2024/01/26 05:47:27;;;;;;;3.33;3.00;;;6.70;53.50;;;;;;4950282;29;20272;-82
2024/01/26 05:49:53;;;;;;;3.50;3.20;;;6.60;53.60;;;;;;4933824;29;20627;-82
2024/01/26 05:52:18;;;;;;;4.10;3.10;;;6.80;53.90;;;;;;4951606;28;20182;-82
2024/01/26 05:54:44;;;;;;;4.10;3.30;;;6.60;53.80;;;;;;4934281;28;20181;-81
2024/01/26 05:57:10;;;;;;;3.47;3.17;;;6.60;53.80;;;;;;4933604;29;20667;-81
2024/01/26 05:59:38;;;;;;;4.13;3.00;;;6.60;54.00;;;;;;4934630;29;20599;-82
2024/01/26 06:02:04;;;;;;;4.77;3.50;;;6.70;53.90;;;;;;4933201;28;20227;-82
2024/01/26 06:04:33;;;;;;;3.80;3.50;;;6.70;53.90;;;;;;4933424;29;20636;-81
2024/01/26 06:06:59;;;;;;;3.70;3.40;;;6.80;53.80;;;;;;4934564;29;20235;-82
2024/01/26 06:09:25;;;;;;;3.67;3.13;;;6.50;53.20;;;;;;4950158;28;20182;-81
2024/01/26 06:11:51;;;;;;;3.70;3.30;;;6.60;53.50;;;;;;4933657;29;20725;-82
2024/01/26 06:14:16;;;;;;;3.80;3.50;;;6.60;53.70;;;;;;4948996;29;20185;-82
2024/01/26 06:16:42;;;;;;;3.30;3.00;;;6.50;53.50;;;;;;4932430;29;20195;-81
2024/01/26 06:19:07;;;;;;;4.80;3.40;;;6.50;53.70;;;;;;4951460;29;20300;-81
2024/01/26 06:21:33;;;;;;;3.50;3.20;;;6.50;53.90;;;;;;4934252;28;20200;-81
2024/01/26 06:23:59;;;;;;;3.77;3.43;;;6.60;54.10;;;;;;4933728;28;20359;-82
2024/01/26 06:26:25;;;;;;;4.57;4.10;;;6.60;53.90;;;;;;4934377;29;20703;-81
2024/01/26 06:28:51;;;;;;;3.50;3.20;;;6.60;53.90;;;;;;4933340;28;20200;-82
2024/01/26 06:31:17;;;;;;;5.17;3.70;;;6.60;53.30;;;;;;4951895;28;20264;-82
2024/01/26 06:33:42;;;;;;;4.37;3.63;;;6.60;53.40;;;;;;4934877;29;20647;-80
2024/01/26 06:36:11;;;;;;;6.63;4.27;;;6.80;53.60;;;;;;4933625;29;20189;-82
2024/01/26 06:38:40;;;;;;;4.73;4.03;;;6.60;53.40;;;;;;4937441;29;20236;-82
2024/01/26 06:41:06;;;;;;;3.60;3.30;;;6.60;53.50;;;;;;4937330;29;20552;-81
2024/01/26 06:43:32;;;;;;;4.80;3.57;;;6.70;53.30;;;;;;4936840;29;20564;-81
2024/01/26 06:45:58;;;;;;;4.60;3.23;;;6.70;53.40;;;;;;4953397;28;20184;-83
2024/01/26 06:48:26;;;;;;;3.70;3.40;;;6.60;53.60;;;;;;4938160;29;20189;-82
2024/01/26 06:50:52;;;;;;;3.60;3.30;;;6.70;53.60;;;;;;4936933;29;20200;-81
2024/01/26 06:53:17;;;;;;;4.90;3.30;;;6.80;53.40;;;;;;4954041;28;20181;-82
2024/01/26 06:55:43;;;;;;;3.57;3.00;;;6.60;53.00;;;;;;4953936;28;20594;-82
2024/01/26 06:58:09;;;;;;;3.37;3.07;;;6.60;52.80;;;;;;4954909;28;20608;-81
2024/01/26 07:00:35;;;;;;;4.07;3.47;;;6.60;53.00;;;;;;4937587;29;20197;-82
2024/01/26 07:03:00;;;;;;;4.37;3.50;;;6.60;53.10;;;;;;4953086;28;20189;-82
2024/01/26 07:05:26;;;;;;;5.03;3.50;;;6.70;53.10;;;;;;4953509;28;20616;-81
2024/01/26 07:07:51;;;;;;;3.97;3.50;;;6.70;52.90;;;;;;4953941;28;20247;-81
2024/01/26 07:10:17;;;;;;;3.70;3.40;;;6.80;53.00;;;;;;4938030;29;20647;-82
2024/01/26 07:12:43;;;;;;;5.27;3.90;;;6.70;52.80;;;;;;4952380;29;20305;-83
2024/01/26 07:15:09;;;;;;;5.20;3.40;;;6.80;53.00;;;;;;4950721;29;20185;-82
2024/01/26 07:17:35;;;;;;;4.07;3.07;;;6.80;53.20;;;;;;4951629;28;20674;-82
2024/01/26 07:20:03;;;;;;;3.30;3.00;;;6.80;53.20;;;;;;4936347;29;20193;-82
2024/01/26 07:22:29;;;;;;;4.33;3.30;;;6.90;53.00;;;;;;4935930;29;20173;-81
2024/01/26 07:24:55;;;;;;;3.57;3.27;;;6.90;52.90;;;;;;4953996;29;20243;-81
2024/01/26 07:27:21;;;;;;;3.83;3.40;;;6.90;52.90;;;;;;4936878;29;20190;-80
2024/01/26 07:29:47;;;;;;;3.90;3.40;;;6.90;53.10;;;;;;4936984;29;20193;-81
2024/01/26 07:32:13;;;;;;;4.50;3.30;;;6.90;53.00;;;;;;4950400;28;20196;-82
2024/01/26 07:34:39;;;;;;;4.17;3.73;;;7.00;53.00;;;;;;4935272;29;20193;-81
2024/01/26 07:37:05;;;;;;;4.33;3.50;;;7.10;52.90;;;;;;4938128;28;20181;-81
2024/01/26 07:39:30;;;;;;;5.60;4.70;;;7.00;52.90;;;;;;4946411;29;20194;-81
2024/01/26 07:41:56;;;;;;;4.70;4.20;;;6.90;52.80;;;;;;4950614;28;20189;-82
2024/01/26 07:44:22;;;;;;;7.13;4.40;;;6.90;52.90;;;;;;4936675;29;20632;-81
2024/01/26 07:46:47;;;;;;;5.30;4.80;;;6.90;53.00;;;;;;4935790;29;20202;-81
2024/01/26 07:49:13;;;;;;;7.43;4.90;;;7.00;53.20;;;;;;4953607;28;20196;-81
2024/01/26 07:51:39;;;;;;;5.33;4.47;;;7.00;53.20;;;;;;4936633;29;20655;-82
2024/01/26 07:54:05;;;;;;;5.93;5.33;;;7.00;53.30;;;;;;4935763;29;20200;-82
2024/01/26 07:56:31;;;;;;;5.87;4.90;;;7.20;53.40;;;;;;4936569;29;20177;-82
2024/01/26 07:58:56;;;;;;;5.93;4.87;;;7.10;53.30;;;;;;4948529;28;20224;-82
2024/01/26 08:01:22;;;;;;;4.80;4.03;;;7.10;53.50;;;;;;4936783;29;20208;-82
2024/01/26 08:03:47;;;;;;;7.20;4.20;;;7.20;53.60;;;;;;4937132;29;20177;-82
2024/01/26 08:06:13;;;;;;;6.63;4.83;;;7.20;53.20;;;;;;4951033;28;20185;-82
2024/01/26 08:08:39;;;;;;;5.67;3.97;;;7.20;53.20;;;;;;4936193;28;20667;-81
2024/01/26 08:11:05;;;;;;;5.53;4.43;;;7.10;53.20;;;;;;4935791;29;20232;-81
2024/01/26 08:13:30;;;;;;;5.23;4.27;;;7.10;53.20;;;;;;4935091;29;20221;-81
2024/01/26 08:15:56;;;;;;;6.83;5.37;;;7.20;53.40;;;;;;4936221;28;20185;-82
2024/01/26 08:18:22;;;;;;;6.53;5.80;;;7.10;53.40;;;;;;4936068;29;20620;-82
2024/01/26 08:20:47;;;;;;;6.67;5.97;;;7.00;53.30;;;;;;4950962;28;20193;-82
2024/01/26 08:23:13;;;;;;;5.23;4.73;;;7.00;53.50;;;;;;4935294;28;20189;-82
2024/01/26 08:25:39;;;;;;;5.07;4.00;;;7.10;53.60;;;;;;4935054;29;20243;-82
2024/01/26 08:28:06;;;;;;;5.13;4.30;;;7.10;54.10;;;;;;4935760;29;20267;-81
2024/01/26 08:30:32;;;;;;;4.20;3.80;;;7.10;53.20;;;;;;4935787;29;20187;-83
2024/01/26 08:32:57;;;;;;;3.70;3.40;;;7.30;53.50;;;;;;4927513;29;20189;-82
2024/01/26 08:35:23;;;;;;;4.10;3.40;;;7.10;52.00;;;;;;4939271;28;20193;-81
2024/01/26 08:37:49;;;;;;;4.97;3.07;;;7.20;52.10;;;;;;4935124;29;20224;-81
2024/01/26 08:40:14;;;;;;;3.07;2.50;;;6.90;51.70;;;;;;4935865;29;20555;-81
2024/01/26 08:42:40;;;;;;;2.93;2.63;;;7.00;51.70;;;;;;4935600;28;20636;-81
2024/01/26 08:45:06;;;;;;;4.53;3.27;;;7.00;52.20;;;;;;4934853;29;20196;-81
2024/01/26 08:47:31;;;;;;;3.17;2.57;;;7.00;52.20;;;;;;4935398;29;20632;-81
2024/01/26 08:49:57;;;;;;;3.47;2.77;;;7.00;51.80;;;;;;4934630;29;20603;-82
2024/01/26 08:52:23;;;;;;;4.67;3.40;;;7.00;51.70;;;;;;4953618;29;20674;-82
2024/01/26 08:54:48;;;;;;;5.47;3.30;;;7.10;52.00;;;;;;4935897;29;20185;-83
2024/01/26 08:57:15;;;;;;;5.93;3.10;;;7.10;51.80;;;;;;4934160;29;20547;-81
2024/01/26 08:59:40;;;;;;;3.07;2.60;;;7.10;51.90;;;;;;4935464;28;20200;-82
2024/01/26 09:02:07;;;;;;;3.27;2.97;;;7.10;51.60;;;;;;4949790;28;20173;-82
2024/01/26 09:04:32;;;;;;;3.30;2.90;;;7.00;51.70;;;;;;4934733;29;20548;-82
2024/01/26 09:06:58;;;;;;;5.43;3.10;;;7.10;51.80;;;;;;4950353;28;20192;-82
2024/01/26 09:09:24;;;;;;;4.17;3.30;;;7.10;52.00;;;;;;4934969;28;20193;-80
2024/01/26 09:11:51;;;;;;;3.67;3.10;;;7.10;52.00;;;;;;4949366;28;20221;-81
2024/01/26 09:14:17;;;;;;;2.70;2.50;;;7.10;51.90;;;;;;4948888;29;20181;-82
2024/01/26 09:16:43;;;;;;;4.93;3.43;;;7.10;51.60;;;;;;4933402;29;20551;-82
2024/01/26 09:19:10;;;;;;;4.20;2.87;;;7.10;51.60;;;;;;4935234;29;20635;-82
2024/01/26 09:21:36;;;;;;;3.90;3.00;;;7.30;51.70;;;;;;4949162;28;20188;-82
2024/01/26 09:24:02;;;;;;;4.87;3.37;;;7.20;51.60;;;;;;4948449;29;20284;-83
2024/01/26 09:26:28;;;;;;;5.27;3.70;;;7.10;51.80;;;;;;4935629;29;20200;-82
2024/01/26 09:28:53;;;;;;;5.23;3.70;;;7.20;51.90;;;;;;4949257;28;20188;-82
2024/01/26 09:31:19;;;;;;;4.93;3.33;;;7.20;51.90;;;;;;4952350;28;20590;-82
2024/01/26 09:33:45;;;;;;;5.70;3.43;;;7.30;52.10;;;;;;4934950;29;20188;-81
2024/01/26 09:36:27;;;;;;;3.60;3.00;;;7.30;52.00;;;;;;4933594;29;20197;-85
2024/01/26 09:38:53;;;;;;;4.13;2.90;;;7.20;51.60;;;;;;4934548;28;20221;-84
2024/01/26 09:41:19;;;;;;;4.23;2.90;;;7.20;51.50;;;;;;4949937;29;20719;-84
2024/01/26 09:43:45;;;;;;;4.70;3.00;;;7.30;51.90;;;;;;4933348;29;20569;-85
2024/01/26 09:46:11;;;;;;;6.23;3.33;;;7.30;52.10;;;;;;4950988;28;20215;-85
2024/01/26 09:48:39;;;;;;;4.33;3.17;;;7.10;51.80;;;;;;4949094;29;20193;-84
2024/01/26 09:51:05;;;;;;;6.57;3.50;;;7.20;51.90;;;;;;4948530;28;20276;-84
2024/01/26 09:53:33;;;;;;;3.20;2.77;;;7.10;51.90;;;;;;4934629;29;20276;-82
2024/01/26 09:56:00;;;;;;;5.20;3.30;;;7.20;52.00;;;;;;4932157;28;20292;-84
2024/01/26 09:58:25;;;;;;;6.27;4.10;;;7.10;51.80;;;;;;4934894;29;20201;-85
2024/01/26 10:00:54;;;;;;;4.73;3.87;;;7.20;52.20;;;;;;4949530;28;20195;-84
2024/01/26 10:03:23;;;;;;;5.30;3.57;;;7.10;52.30;;;;;;4933806;29;20195;-85
2024/01/26 10:05:49;;;;;;;4.63;3.50;;;7.20;52.40;;;;;;4932044;29;20193;-83
2024/01/26 10:08:15;;;;;;;3.13;2.83;;;7.30;52.40;;;;;;4947772;28;20224;-85
2024/01/26 10:10:41;;;;;;;3.70;2.40;;;7.30;52.30;;;;;;4933799;28;20177;-83
2024/01/26 10:13:07;;;;;;;3.77;2.70;;;7.30;51.60;;;;;;4937533;29;20224;-84
2024/01/26 10:15:33;;;;;;;3.87;2.90;;;7.40;51.60;;;;;;4938257;29;20193;-83
2024/01/26 10:18:00;;;;;;;7.17;3.00;;;7.30;51.40;;;;;;4938319;29;20208;-85
2024/01/26 10:20:26;;;;;;;5.53;4.30;;;7.30;51.40;;;;;;4938618;29;20560;-84
2024/01/26 10:22:52;;;;;;;4.40;3.00;;;7.40;51.20;;;;;;4936999;28;20205;-84
2024/01/26 10:25:18;;;;;;;3.47;2.90;;;7.20;51.30;;;;;;4938383;28;20212;-83
2024/01/26 10:27:44;;;;;;;3.87;3.00;;;7.40;51.60;;;;;;4938232;29;20200;-84
2024/01/26 10:30:11;;;;;;;2.93;2.60;;;7.30;51.80;;;;;;4952022;28;20651;-83
2024/01/26 10:32:37;;;;;;;3.13;2.83;;;7.30;51.60;;;;;;4939066;28;20657;-83
2024/01/26 10:35:04;;;;;;;3.67;2.83;;;7.40;51.60;;;;;;4937612;29;20181;-82
2024/01/26 10:37:34;;;;;;;5.07;2.93;;;7.30;50.90;;;;;;4937509;29;20209;-81
2024/01/26 10:40:04;;;;;;;3.03;2.60;;;7.30;50.90;;;;;;4933273;28;20204;-82
2024/01/26 10:42:30;;;;;;;3.23;2.70;;;7.30;51.10;;;;;;4937841;29;20217;-82
2024/01/26 10:44:58;;;;;;;2.90;2.60;;;7.40;51.00;;;;;;4937914;29;20189;-82
2024/01/26 10:47:25;;;;;;;3.33;2.60;;;7.50;51.00;;;;;;4953103;29;20216;-81
2024/01/26 10:49:55;;;;;;;3.47;2.73;;;7.40;51.00;;;;;;4953148;28;20185;-83
2024/01/26 10:52:22;;;;;;;2.90;2.60;;;7.50;50.80;;;;;;4938999;29;20214;-82
2024/01/26 10:54:50;;;;;;;3.57;2.40;;;7.40;50.80;;;;;;4931761;29;20194;-83
2024/01/26 10:57:19;;;;;;;3.47;2.77;;;7.60;50.80;;;;;;4930519;29;20193;-81
2024/01/26 10:59:45;;;;;;;2.80;2.60;;;7.40;50.60;;;;;;4936610;29;20549;-82
2024/01/26 11:02:31;;;;;;;2.50;2.30;;;7.40;50.40;;;;;;4951063;28;20712;-83
2024/01/26 11:05:07;;;;;;;3.17;2.60;;;7.40;50.40;;;;;;4920980;29;20272;-81
2024/01/26 11:07:34;;;;;;;5.60;3.10;;;7.50;50.70;;;;;;4933913;29;20299;-83
2024/01/26 11:10:04;;;;;;;3.00;2.33;;;7.60;50.40;;;;;;4937704;28;20272;-81
2024/01/26 11:12:32;;;;;;;3.97;2.43;;;7.50;50.10;;;;;;4936881;29;20224;-82
2024/01/26 11:15:08;;;;;;;2.83;2.50;;;7.50;50.30;;;;;;4937300;29;20557;-82
2024/01/26 11:17:56;;;;;;;2.60;2.40;;;7.40;49.40;;;;;;4951482;29;20773;-85
2024/01/26 11:20:29;;;;;;;3.27;2.50;;;7.30;49.50;;;;;;4950394;28;20313;-85
2024/01/26 11:23:11;;;;;;;3.10;2.80;;;7.30;49.70;;;;;;4934988;28;20557;-85
2024/01/26 11:25:49;;;;;;;3.43;3.13;;;7.30;49.80;;;;;;4933875;29;20695;-85
2024/01/26 11:28:17;;;;;;;3.40;3.10;;;7.30;49.30;;;;;;4936014;29;20185;-85
2024/01/26 11:30:50;;;;;;;3.47;3.10;;;7.30;49.70;;;;;;4937227;28;20185;-84
2024/01/26 11:33:17;;;;;;;5.47;3.33;;;7.30;49.60;;;;;;4936095;29;20193;-83
2024/01/26 11:35:43;;;;;;;4.63;3.50;;;7.30;49.50;;;;;;4930915;29;20207;-83
2024/01/26 11:38:09;;;;;;;6.13;3.37;;;7.20;49.70;;;;;;4952287;29;20695;-84
2024/01/26 11:40:35;;;;;;;4.10;3.40;;;7.20;50.60;;;;;;4953613;28;20177;-83
2024/01/26 11:43:01;;;;;;;5.27;4.00;;;7.40;50.30;;;;;;4937615;29;20181;-83
2024/01/26 11:45:42;;;;;;;4.03;3.63;;;7.40;50.40;;;;;;4935664;28;20188;-84
2024/01/26 11:48:08;;;;;;;4.97;4.40;;;7.40;50.20;;;;;;4928078;29;20671;-85
2024/01/26 11:50:35;;;;;;;6.30;4.30;;;7.50;50.30;;;;;;4938968;29;20192;-84
2024/01/26 11:53:02;;;;;;;5.23;4.30;;;7.50;50.10;;;;;;4951535;29;20185;-84
2024/01/26 11:55:29;;;;;;;5.83;3.83;;;7.50;50.60;;;;;;4937565;29;20260;-83
2024/01/26 11:57:55;;;;;;;5.90;4.73;;;7.50;50.10;;;;;;4931301;28;20611;-83
2024/01/26 12:00:21;;;;;;;4.23;3.83;;;7.40;50.10;;;;;;4935726;29;20719;-84
2024/01/26 12:02:47;;;;;;;4.93;3.90;;;7.40;50.00;;;;;;4952028;29;20747;-85
2024/01/26 12:05:15;;;;;;;3.80;3.40;;;7.40;49.90;;;;;;4950065;29;20216;-85
2024/01/26 12:07:40;;;;;;;5.53;4.10;;;7.50;49.90;;;;;;4953280;28;20662;-85
2024/01/26 12:10:08;;;;;;;6.17;4.10;;;7.40;49.90;;;;;;4951400;28;20248;-85
2024/01/26 12:12:33;;;;;;;7.40;4.60;;;7.40;50.00;;;;;;4936087;29;20566;-85
2024/01/26 12:15:01;;;;;;;5.23;4.43;;;7.40;49.80;;;;;;4936304;29;20192;-84
2024/01/26 12:17:27;;;;;;;5.20;4.67;;;7.40;50.00;;;;;;4932826;29;20185;-83
2024/01/26 12:19:54;;;;;;;4.90;4.03;;;7.40;50.00;;;;;;4951743;28;20194;-83
2024/01/26 12:22:20;;;;;;;4.80;4.13;;;7.40;49.80;;;;;;4936254;29;20184;-85
2024/01/26 12:24:45;;;;;;;4.50;4.10;;;7.30;49.60;;;;;;4935987;28;20182;-84
2024/01/26 12:27:11;;;;;;;4.77;4.27;;;7.40;49.60;;;;;;4935439;29;20181;-85
2024/01/26 12:29:37;;;;;;;4.97;3.40;;;7.30;49.60;;;;;;4936210;28;20228;-84
2024/01/26 12:32:04;;;;;;;4.83;3.90;;;7.20;49.70;;;;;;4950389;28;20195;-85
2024/01/26 12:34:30;;;;;;;3.13;2.83;;;7.20;50.00;;;;;;4932806;28;20181;-83
2024/01/26 12:36:59;;;;;;;3.70;3.40;;;7.30;50.10;;;;;;4933158;28;20193;-84
2024/01/26 12:39:25;;;;;;;5.23;3.20;;;7.30;50.10;;;;;;4935203;29;20213;-83
2024/01/26 12:41:53;;;;;;;4.27;3.63;;;7.30;50.20;;;;;;4935982;29;20195;-83
2024/01/26 12:44:19;;;;;;;5.33;3.77;;;7.40;50.20;;;;;;4934976;28;20189;-83
2024/01/26 12:46:45;;;;;;;5.77;4.20;;;7.50;50.50;;;;;;4952183;28;20177;-83
2024/01/26 12:49:11;;;;;;;4.77;4.37;;;7.40;50.30;;;;;;4935382;29;20264;-85
2024/01/26 12:51:37;;;;;;;6.63;4.77;;;7.40;50.10;;;;;;4935748;29;20299;-83
2024/01/26 12:54:04;;;;;;;7.93;5.07;;;7.40;50.30;;;;;;4935621;29;20295;-85